Aviation Digital Data Service (ADDS)

Output produced by METARs form (1056 UTC 19 February 2019)
found at http://www.aviationweather.gov/metar/data/
 
Forecast for: DNPO (PORT HARCOURT , NG)
Text: TAF DNPO 190330Z 1906/2012 00000KT 3000 HZ NSC
Forecast period: 0600 to 1200 UTC 19 February 2019
Forecast type: FROM: standard forecast or significant change
Winds: calm
Visibility: 1.86 miles (2.99 km)
Ceiling: unknown
Clouds: missing
Weather: HZ  (haze)
Text: BECMG 1912/1914 30010KT 5000
Forecast period: 1200 UTC 19 February 2019 to 1200 UTC 20 February 2019
Forecast type: BECOMING: Conditions expected to become as follows by 1400 UTC 19 February 2019
Winds: from the WNW (300 degrees) at 12 MPH (10 knots; 5.1 m/s)
Visibility: 3 miles (5 km)
Ceiling: unknown
Clouds: missing
Weather: HZ  (haze)